Time;durP1;ratioP1;P1;durP2;ratioP2;P2;SDS_P1;SDS_P2;PMS_P1;PMS_P2;Temp;Humidity;BMP_temperature;BMP_pressure;BME280_temperature;BME280_humidity;BME280_pressure;Samples;Min_cycle;Max_cycle;Signal;HPM_P1;HPM_P2
2021/06/30 00:00:37;;;;;;;2.88;2.10;;;15.20;99.90;;;;;;8190731;28;20031;-62
2021/06/30 00:04:38;;;;;;;4.78;2.40;;;15.10;99.90;;;;;;8212177;28;20121;-62
2021/06/30 00:08:38;;;;;;;4.32;2.20;;;15.10;99.90;;;;;;8227834;28;20117;-62
2021/06/30 00:12:39;;;;;;;2.35;2.15;;;15.00;99.90;;;;;;8227594;28;20042;-62
2021/06/30 00:16:40;;;;;;;2.65;1.95;;;15.00;99.90;;;;;;8227679;28;20374;-62
2021/06/30 00:20:41;;;;;;;2.95;1.80;;;15.00;99.90;;;;;;8223289;28;20081;-63
2021/06/30 00:24:42;;;;;;;3.38;1.70;;;15.20;99.90;;;;;;8184600;28;20035;-62
2021/06/30 00:28:42;;;;;;;2.35;1.55;;;15.10;99.90;;;;;;8195276;28;20084;-62
2021/06/30 00:32:43;;;;;;;3.47;1.40;;;15.10;99.90;;;;;;8195778;28;20035;-62
2021/06/30 00:36:44;;;;;;;1.58;1.30;;;14.90;99.90;;;;;;8226242;28;20023;-62
2021/06/30 00:40:45;;;;;;;1.42;1.00;;;14.90;99.90;;;;;;8225937;28;20031;-61
2021/06/30 00:44:46;;;;;;;1.73;1.20;;;14.60;99.90;;;;;;8227555;28;20080;-62
2021/06/30 00:48:46;;;;;;;1.70;1.20;;;14.30;99.90;;;;;;8226872;28;20035;-62
2021/06/30 00:52:47;;;;;;;1.75;1.48;;;14.20;99.90;;;;;;8220574;28;20118;-62
2021/06/30 00:56:48;;;;;;;1.60;1.35;;;14.10;99.90;;;;;;8194848;28;20028;-63
2021/06/30 01:00:49;;;;;;;1.70;1.60;;;14.10;99.90;;;;;;8194768;28;20069;-62
2021/06/30 01:04:50;;;;;;;2.22;2.00;;;14.20;99.90;;;;;;8213574;28;20034;-62
2021/06/30 01:08:51;;;;;;;2.95;2.00;;;14.20;99.90;;;;;;8226293;28;20031;-63
2021/06/30 01:12:52;;;;;;;2.33;2.13;;;14.20;99.90;;;;;;8224851;28;20039;-62
2021/06/30 01:16:53;;;;;;;1.42;1.27;;;14.30;99.90;;;;;;8226268;28;20105;-62
2021/06/30 01:20:54;;;;;;;0.60;0.60;;;14.30;99.90;;;;;;8226215;28;20416;-61
2021/06/30 01:24:55;;;;;;;1.65;0.90;;;14.10;99.90;;;;;;8202929;28;20039;-62
2021/06/30 01:28:55;;;;;;;0.80;0.63;;;14.00;99.90;;;;;;8193890;28;20046;-61
2021/06/30 01:32:56;;;;;;;0.60;0.60;;;13.90;99.90;;;;;;8197394;28;20105;-62
2021/06/30 01:36:57;;;;;;;1.70;0.50;;;13.70;99.90;;;;;;8224587;28;20030;-62
2021/06/30 01:40:58;;;;;;;1.20;0.45;;;13.70;99.90;;;;;;8225762;28;20495;-62
2021/06/30 01:44:58;;;;;;;0.25;0.25;;;13.50;99.90;;;;;;8225338;28;20027;-62
2021/06/30 01:48:59;;;;;;;0.30;0.30;;;13.40;99.90;;;;;;8225590;28;20450;-62
2021/06/30 01:52:59;;;;;;;0.75;0.32;;;13.30;99.90;;;;;;8217340;28;20027;-62
2021/06/30 01:57:00;;;;;;;0.40;0.30;;;13.10;99.90;;;;;;8193292;28;20019;-62
2021/06/30 02:01:01;;;;;;;0.43;0.35;;;13.10;99.90;;;;;;8193417;28;20494;-62
2021/06/30 02:05:09;;;;;;;0.93;0.30;;;13.00;99.90;;;;;;8213404;28;20030;-63
2021/06/30 02:09:12;;;;;;;0.73;0.40;;;13.00;99.90;;;;;;8225007;28;20045;-62
2021/06/30 02:13:13;;;;;;;0.70;0.30;;;13.10;99.90;;;;;;8224730;28;20496;-62
2021/06/30 02:17:17;;;;;;;0.30;0.30;;;13.00;99.90;;;;;;8225378;28;20345;-62
2021/06/30 02:21:18;;;;;;;0.32;0.30;;;12.90;99.90;;;;;;8223673;28;20027;-62
2021/06/30 02:25:25;;;;;;;0.55;0.30;;;12.90;99.90;;;;;;8198110;28;20027;-62
2021/06/30 02:29:26;;;;;;;0.20;0.20;;;12.90;99.90;;;;;;8192486;28;20035;-63
2021/06/30 02:33:27;;;;;;;0.30;0.30;;;12.90;99.90;;;;;;8200259;28;20041;-63
2021/06/30 02:37:28;;;;;;;0.63;0.40;;;12.90;99.90;;;;;;8224697;28;20038;-63
2021/06/30 02:41:28;;;;;;;0.30;0.20;;;12.80;99.90;;;;;;8223983;28;20109;-62
2021/06/30 02:45:29;;;;;;;0.30;0.30;;;12.80;99.90;;;;;;8224996;28;20080;-63
2021/06/30 02:49:29;;;;;;;0.88;0.30;;;12.60;99.90;;;;;;8223143;28;20034;-63
2021/06/30 02:53:30;;;;;;;0.63;0.20;;;12.50;99.90;;;;;;8211890;28;20111;-62
2021/06/30 02:57:31;;;;;;;1.83;0.30;;;12.50;99.90;;;;;;8192111;28;20020;-63
2021/06/30 03:01:31;;;;;;;0.30;0.30;;;12.50;99.90;;;;;;8191949;28;20367;-63
2021/06/30 03:05:32;;;;;;;0.32;0.20;;;12.50;99.90;;;;;;8216152;28;20534;-62
2021/06/30 03:09:32;;;;;;;0.20;0.20;;;12.40;99.90;;;;;;8223546;28;20102;-62
2021/06/30 03:13:33;;;;;;;1.13;0.25;;;12.40;99.90;;;;;;8223683;28;20449;-62
2021/06/30 03:17:34;;;;;;;1.27;0.30;;;12.30;99.90;;;;;;8223326;28;20042;-63
2021/06/30 03:21:35;;;;;;;0.55;0.28;;;12.30;99.90;;;;;;8195645;28;20032;-62
2021/06/30 03:25:36;;;;;;;0.80;0.40;;;12.30;99.90;;;;;;8188526;28;20477;-62
2021/06/30 03:29:36;;;;;;;0.30;0.30;;;12.40;99.90;;;;;;8191597;28;20100;-62
2021/06/30 03:33:37;;;;;;;2.75;0.95;;;12.30;99.90;;;;;;8200003;28;20035;-62
2021/06/30 03:37:37;;;;;;;0.50;0.47;;;12.40;99.90;;;;;;8225907;28;20039;-63
2021/06/30 03:41:38;;;;;;;1.95;0.52;;;12.40;99.90;;;;;;8228974;28;20565;-62
2021/06/30 03:45:38;;;;;;;1.90;0.80;;;12.40;99.90;;;;;;8229296;28;20058;-62
2021/06/30 03:49:39;;;;;;;0.40;0.40;;;12.40;99.90;;;;;;8170667;28;20097;-63
2021/06/30 03:53:39;;;;;;;0.45;0.40;;;12.40;99.90;;;;;;8177672;28;20024;-63
2021/06/30 03:57:40;;;;;;;0.47;0.32;;;12.40;99.90;;;;;;8195965;28;20035;-62
2021/06/30 04:01:41;;;;;;;0.32;0.32;;;12.50;99.90;;;;;;8196285;28;20096;-63
2021/06/30 04:05:41;;;;;;;0.28;0.22;;;12.40;99.90;;;;;;8220686;28;20027;-63
2021/06/30 04:09:42;;;;;;;0.20;0.20;;;12.50;99.90;;;;;;8227912;28;20488;-63
2021/06/30 04:13:43;;;;;;;0.30;0.20;;;12.60;99.90;;;;;;8209522;28;20066;-63
2021/06/30 04:17:43;;;;;;;0.40;0.20;;;12.50;99.90;;;;;;8193886;28;20109;-63
2021/06/30 04:21:44;;;;;;;0.35;0.22;;;12.60;99.90;;;;;;8186232;28;20023;-62
2021/06/30 04:25:47;;;;;;;0.40;0.30;;;12.60;99.90;;;;;;8189432;29;20449;-63
2021/06/30 04:29:48;;;;;;;0.20;0.20;;;12.60;99.90;;;;;;8192056;28;20389;-63
2021/06/30 04:33:49;;;;;;;0.50;0.20;;;12.80;99.90;;;;;;8188398;28;20034;-63
2021/06/30 04:37:50;;;;;;;4.68;0.30;;;12.90;99.90;;;;;;8177253;28;20023;-63
2021/06/30 04:41:50;;;;;;;0.22;0.22;;;13.10;99.90;;;;;;8184980;28;20038;-65
2021/06/30 04:45:51;;;;;;;0.75;0.20;;;13.10;99.90;;;;;;8177603;28;20039;-65
2021/06/30 04:49:51;;;;;;;0.30;0.30;;;13.00;99.90;;;;;;8177510;28;20517;-65
2021/06/30 04:53:52;;;;;;;1.80;0.30;;;13.00;99.90;;;;;;8178318;28;20031;-65
2021/06/30 04:57:53;;;;;;;0.30;0.30;;;13.10;99.90;;;;;;8176556;29;20258;-65
2021/06/30 05:01:53;;;;;;;2.65;0.40;;;13.10;99.90;;;;;;8170672;28;20051;-66
2021/06/30 05:05:55;;;;;;;1.85;0.30;;;13.10;99.90;;;;;;8221254;28;20528;-67
2021/06/30 05:09:56;;;;;;;0.40;0.20;;;13.30;99.90;;;;;;8187810;28;20031;-65
2021/06/30 05:13:57;;;;;;;0.28;0.28;;;13.40;99.90;;;;;;8162225;28;20537;-68
2021/06/30 05:17:58;;;;;;;0.22;0.17;;;13.50;99.90;;;;;;8182098;28;20046;-66
2021/06/30 05:21:58;;;;;;;0.70;0.22;;;13.70;99.90;;;;;;8194061;28;20063;-65
2021/06/30 05:25:59;;;;;;;0.45;0.22;;;13.70;99.90;;;;;;8192318;28;20433;-66
2021/06/30 05:29:59;;;;;;;0.20;0.20;;;13.60;99.90;;;;;;8258627;28;20033;-66
2021/06/30 05:34:00;;;;;;;0.20;0.20;;;13.60;99.90;;;;;;8201290;28;20497;-65
2021/06/30 05:38:00;;;;;;;0.10;0.10;;;13.60;99.90;;;;;;8183103;28;20036;-65
2021/06/30 05:42:01;;;;;;;0.17;0.17;;;13.70;99.90;;;;;;8160557;28;20031;-65
2021/06/30 05:46:02;;;;;;;0.63;0.20;;;13.70;99.90;;;;;;8170723;28;20042;-65
2021/06/30 05:50:03;;;;;;;0.20;0.20;;;13.70;99.90;;;;;;8180089;28;20053;-65
2021/06/30 05:54:03;;;;;;;0.45;0.40;;;13.60;99.90;;;;;;8176925;28;20038;-65
2021/06/30 05:58:04;;;;;;;0.20;0.20;;;13.70;99.90;;;;;;8166882;28;20043;-60
2021/06/30 06:02:04;;;;;;;1.83;0.35;;;13.70;99.90;;;;;;8187079;28;20039;-61
2021/06/30 06:06:05;;;;;;;0.30;0.30;;;13.80;99.90;;;;;;8192075;28;20093;-61
2021/06/30 06:10:07;;;;;;;0.20;0.20;;;13.80;99.90;;;;;;8190642;28;20039;-60
2021/06/30 06:14:08;;;;;;;0.57;0.32;;;13.80;99.90;;;;;;8192195;29;20046;-60
2021/06/30 06:18:09;;;;;;;0.40;0.20;;;13.90;99.90;;;;;;8176578;28;20028;-62
2021/06/30 06:22:09;;;;;;;2.15;0.30;;;14.10;99.90;;;;;;8160831;28;20038;-60
2021/06/30 06:26:12;;;;;;;0.63;0.30;;;14.30;99.90;;;;;;8191478;28;20027;-61
2021/06/30 06:30:13;;;;;;;0.30;0.30;;;14.60;99.90;;;;;;8173524;28;20039;-60
2021/06/30 06:34:19;;;;;;;0.38;0.30;;;14.70;99.90;;;;;;8187418;28;21141;-60
2021/06/30 06:38:23;;;;;;;0.20;0.20;;;14.50;99.90;;;;;;8177375;28;20016;-60
2021/06/30 06:42:23;;;;;;;0.20;0.20;;;14.70;99.90;;;;;;8163738;28;20059;-61
2021/06/30 06:46:24;;;;;;;0.35;0.35;;;14.70;99.90;;;;;;8200779;28;20198;-61
2021/06/30 06:50:25;;;;;;;0.65;0.20;;;14.70;99.90;;;;;;8177325;28;20027;-61
2021/06/30 06:54:25;;;;;;;1.50;0.30;;;14.70;99.90;;;;;;8174951;28;20448;-60
2021/06/30 06:58:26;;;;;;;0.35;0.22;;;14.80;99.90;;;;;;8179381;28;20035;-61
2021/06/30 07:02:28;;;;;;;0.20;0.20;;;14.80;99.90;;;;;;8173920;28;20051;-61
2021/06/30 07:06:29;;;;;;;0.30;0.30;;;14.70;99.90;;;;;;8172733;28;20023;-60
2021/06/30 07:10:29;;;;;;;1.25;0.25;;;14.70;99.90;;;;;;8177246;28;20117;-61
2021/06/30 07:14:30;;;;;;;0.30;0.30;;;14.50;99.90;;;;;;8178134;28;20020;-61
2021/06/30 07:18:31;;;;;;;0.52;0.28;;;14.30;99.90;;;;;;8175996;29;20495;-60
2021/06/30 07:22:32;;;;;;;0.30;0.30;;;14.10;99.90;;;;;;8184350;28;20031;-60
2021/06/30 07:26:33;;;;;;;0.93;0.40;;;14.30;99.90;;;;;;8183075;28;20035;-60
2021/06/30 07:30:34;;;;;;;2.35;0.38;;;14.60;99.90;;;;;;8182866;28;20047;-61
2021/06/30 07:34:34;;;;;;;0.40;0.30;;;15.10;99.90;;;;;;8177547;28;20398;-61
2021/06/30 07:38:35;;;;;;;1.08;0.40;;;15.00;99.90;;;;;;8172260;28;20036;-60
2021/06/30 07:42:35;;;;;;;0.40;0.40;;;14.80;99.90;;;;;;8184761;28;20418;-61
2021/06/30 07:46:36;;;;;;;0.63;0.38;;;15.00;99.90;;;;;;8176799;28;20037;-61
2021/06/30 07:50:37;;;;;;;0.57;0.35;;;15.30;99.90;;;;;;8188497;29;20031;-61
2021/06/30 07:54:37;;;;;;;3.70;0.30;;;15.60;99.90;;;;;;8190766;28;20062;-61
2021/06/30 07:58:39;;;;;;;0.45;0.30;;;15.70;99.90;;;;;;8184755;28;20527;-61
2021/06/30 08:02:40;;;;;;;0.43;0.40;;;16.10;99.90;;;;;;8191000;28;20430;-61
2021/06/30 08:06:40;;;;;;;0.40;0.40;;;16.70;99.90;;;;;;8188746;28;20055;-61
2021/06/30 08:10:41;;;;;;;0.47;0.30;;;16.60;99.90;;;;;;8175596;28;20047;-60
2021/06/30 08:14:41;;;;;;;0.28;0.28;;;16.60;99.90;;;;;;8178079;28;20024;-60
2021/06/30 08:18:42;;;;;;;0.40;0.30;;;16.60;99.90;;;;;;8177280;28;20032;-61
2021/06/30 08:22:44;;;;;;;0.50;0.50;;;17.00;99.90;;;;;;8188657;28;20418;-61
2021/06/30 08:26:45;;;;;;;0.65;0.30;;;17.10;99.90;;;;;;8176674;28;20035;-60
2021/06/30 08:30:45;;;;;;;0.43;0.40;;;17.20;99.90;;;;;;8186139;28;20389;-61
2021/06/30 08:34:46;;;;;;;0.30;0.20;;;17.40;99.90;;;;;;8213713;28;20028;-61
2021/06/30 08:38:46;;;;;;;0.28;0.28;;;17.70;99.90;;;;;;8184965;28;20019;-61
2021/06/30 08:42:47;;;;;;;1.35;0.30;;;17.50;99.90;;;;;;8176307;28;20154;-61
2021/06/30 08:46:50;;;;;;;0.30;0.30;;;17.40;99.90;;;;;;8178995;28;20428;-61
2021/06/30 08:50:52;;;;;;;0.85;0.30;;;17.20;99.90;;;;;;8173434;28;20501;-61
2021/06/30 08:54:57;;;;;;;0.20;0.20;;;17.30;99.90;;;;;;8174798;28;20063;-61
2021/06/30 08:59:01;;;;;;;0.35;0.35;;;17.20;99.90;;;;;;8173756;28;20714;-60
2021/06/30 09:03:02;;;;;;;0.52;0.20;;;17.30;99.90;;;;;;8173198;28;20088;-60
2021/06/30 09:07:03;;;;;;;1.17;0.20;;;17.40;99.90;;;;;;8182882;28;20106;-60
2021/06/30 09:11:10;;;;;;;0.30;0.30;;;17.50;99.90;;;;;;8171448;28;20115;-61
2021/06/30 09:15:16;;;;;;;0.63;0.30;;;18.10;99.90;;;;;;8166328;28;20024;-60
2021/06/30 09:19:17;;;;;;;0.20;0.20;;;18.60;99.90;;;;;;8183405;28;20042;-60
2021/06/30 09:23:17;;;;;;;0.20;0.20;;;18.20;99.90;;;;;;8179490;28;20063;-71
2021/06/30 09:27:19;;;;;;;0.77;0.30;;;17.90;99.90;;;;;;8173853;28;20043;-68
2021/06/30 09:31:25;;;;;;;0.30;0.30;;;18.00;99.90;;;;;;8182350;28;20031;-69
2021/06/30 09:35:33;;;;;;;0.30;0.30;;;18.00;99.90;;;;;;8175084;28;20148;-71
2021/06/30 09:39:53;;;;;;;1.00;0.40;;;18.10;99.90;;;;;;8161656;28;20034;-68
2021/06/30 09:44:08;;;;;;;0.30;0.30;;;18.40;99.90;;;;;;8160469;28;20024;-69
2021/06/30 09:48:09;;;;;;;0.30;0.30;;;18.50;99.90;;;;;;8159966;28;20054;-70
2021/06/30 09:52:15;;;;;;;0.20;0.20;;;17.90;99.90;;;;;;8159137;28;20030;-69
2021/06/30 09:56:33;;;;;;;2.65;0.40;;;17.60;99.90;;;;;;8190329;28;20019;-69
2021/06/30 10:00:34;;;;;;;1.65;0.30;;;17.60;99.90;;;;;;8196469;28;20427;-69
2021/06/30 10:04:43;;;;;;;0.20;0.20;;;18.20;99.90;;;;;;8208132;28;20588;-69
2021/06/30 10:08:43;;;;;;;0.30;0.30;;;18.60;99.90;;;;;;8195165;28;20035;-69
2021/06/30 10:12:44;;;;;;;0.32;0.30;;;19.30;99.90;;;;;;8209809;23;20610;-70
2021/06/30 10:16:45;;;;;;;0.30;0.30;;;19.70;99.90;;;;;;8189289;28;20106;-68
2021/06/30 10:20:46;;;;;;;0.50;0.28;;;19.20;99.90;;;;;;8189738;28;20036;-68
2021/06/30 10:24:46;;;;;;;1.00;0.30;;;18.70;99.90;;;;;;8156325;28;20093;-68
2021/06/30 10:28:51;;;;;;;0.30;0.30;;;18.40;99.90;;;;;;8157656;28;20036;-68
2021/06/30 10:32:57;;;;;;;0.30;0.30;;;18.60;99.90;;;;;;8151065;28;20474;-69
2021/06/30 10:36:57;;;;;;;0.30;0.22;;;19.10;99.90;;;;;;8167184;28;20028;-67
2021/06/30 10:40:58;;;;;;;0.40;0.40;;;18.90;99.90;;;;;;8160330;28;20451;-68
2021/06/30 10:45:24;;;;;;;0.20;0.20;;;18.50;99.90;;;;;;8159414;28;20394;-69
2021/06/30 10:49:28;;;;;;;0.63;0.40;;;18.60;99.90;;;;;;8162123;29;20030;-67
2021/06/30 10:53:32;;;;;;;0.40;0.40;;;18.50;99.90;;;;;;8161407;28;20032;-68
2021/06/30 10:57:32;;;;;;;2.28;0.40;;;18.70;99.90;;;;;;8159121;28;20023;-68
2021/06/30 11:01:33;;;;;;;0.25;0.25;;;19.10;99.90;;;;;;8161444;28;20040;-68
2021/06/30 11:05:34;;;;;;;0.60;0.52;;;19.30;99.90;;;;;;8184584;28;20086;-69
2021/06/30 11:09:35;;;;;;;0.47;0.47;;;19.30;99.90;;;;;;8191755;29;20136;-67
2021/06/30 11:14:02;;;;;;;0.40;0.40;;;19.20;99.90;;;;;;8184282;28;20036;-68
2021/06/30 11:18:04;;;;;;;0.40;0.40;;;19.20;99.90;;;;;;8143119;28;20028;-67
2021/06/30 11:22:08;;;;;;;0.38;0.38;;;18.80;99.90;;;;;;8139366;28;20047;-68
2021/06/30 11:26:37;;;;;;;0.47;0.43;;;18.70;99.90;;;;;;8133952;28;20027;-68
2021/06/30 11:30:37;;;;;;;0.40;0.40;;;18.80;99.90;;;;;;8142060;28;20036;-68
2021/06/30 11:34:39;;;;;;;0.63;0.43;;;18.80;99.90;;;;;;8158764;28;20498;-66
2021/06/30 11:38:39;;;;;;;1.15;0.45;;;19.40;99.90;;;;;;8158497;28;20023;-67
2021/06/30 11:42:46;;;;;;;1.13;0.60;;;20.20;99.90;;;;;;8157548;28;20047;-68
2021/06/30 11:46:50;;;;;;;0.68;0.40;;;19.90;99.90;;;;;;8157221;28;20031;-68
2021/06/30 11:51:04;;;;;;;0.60;0.40;;;19.80;99.90;;;;;;8156958;28;20306;-68
2021/06/30 11:55:05;;;;;;;0.70;0.40;;;19.80;99.90;;;;;;8153646;28;20546;-68
2021/06/30 11:59:08;;;;;;;0.50;0.40;;;19.50;99.90;;;;;;8155103;28;20231;-67
2021/06/30 12:03:09;;;;;;;0.75;0.50;;;19.50;99.90;;;;;;8154327;28;20468;-68
2021/06/30 12:07:10;;;;;;;1.23;0.60;;;19.40;99.90;;;;;;8163732;29;20040;-68
2021/06/30 12:11:30;;;;;;;0.40;0.40;;;18.90;99.90;;;;;;8159376;28;20027;-67
2021/06/30 12:15:30;;;;;;;0.75;0.47;;;18.80;99.90;;;;;;8145739;28;20035;-68
2021/06/30 12:19:36;;;;;;;0.30;0.30;;;18.50;99.90;;;;;;8155604;29;20067;-68
2021/06/30 12:23:38;;;;;;;1.25;0.40;;;18.20;99.90;;;;;;8159425;28;20074;-70
2021/06/30 12:27:44;;;;;;;0.40;0.40;;;16.50;99.90;;;;;;8152456;28;20481;-71
2021/06/30 12:31:45;;;;;;;1.40;0.60;;;16.50;99.90;;;;;;8159504;28;20038;-71
2021/06/30 12:35:50;;;;;;;0.52;0.50;;;17.70;99.90;;;;;;8153301;28;20546;-70
2021/06/30 12:39:56;;;;;;;0.50;0.50;;;18.70;99.90;;;;;;8169590;28;20031;-71
2021/06/30 12:44:00;;;;;;;0.93;0.50;;;19.90;99.90;;;;;;8150784;29;20093;-70
2021/06/30 12:48:12;;;;;;;3.20;2.25;;;21.30;99.90;;;;;;8152060;28;20067;-67
2021/06/30 12:52:21;;;;;;;0.50;0.50;;;24.00;99.90;;;;;;8143635;28;20043;-68
2021/06/30 12:56:32;;;;;;;2.38;0.40;;;27.80;99.90;;;;;;8145596;28;20038;-68
2021/06/30 13:00:33;;;;;;;92.10;85.20;;;25.90;99.90;;;;;;8142244;28;20039;-68
2021/06/30 13:04:33;;;;;;;780.78;721.47;;;24.20;99.90;;;;;;8144279;28;20082;-67
2021/06/30 13:08:36;;;;;;;7.55;7.18;;;23.70;99.90;;;;;;8144314;28;20106;-67
2021/06/30 13:12:37;;;;;;;0.43;0.40;;;25.50;99.90;;;;;;8148771;29;20503;-66
2021/06/30 13:17:01;;;;;;;803.15;738.85;;;27.30;96.90;;;;;;8155166;28;20031;-66
2021/06/30 13:21:06;;;;;;;884.15;808.08;;;29.50;87.60;;;;;;8150995;28;20039;-67
2021/06/30 13:25:20;;;;;;;837.03;761.85;;;30.00;74.70;;;;;;8147496;28;20040;-66
2021/06/30 13:34:23;;;;;;;694.15;645.47;;;22.90;93.50;;;;;;8182206;28;20213;-65
2021/06/30 13:38:31;;;;;;;583.95;531.33;;;20.10;99.90;;;;;;8145583;28;20040;-68
2021/06/30 13:42:31;;;;;;;517.60;461.33;;;17.10;99.90;;;;;;8133881;28;20103;-70
2021/06/30 13:46:32;;;;;;;438.17;396.77;;;15.80;99.90;;;;;;8148977;28;20027;-70
2021/06/30 13:50:34;;;;;;;105.90;99.57;;;15.30;99.90;;;;;;8155800;28;20035;-70
2021/06/30 13:54:34;;;;;;;277.25;254.65;;;15.00;99.90;;;;;;8151448;28;20023;-70
2021/06/30 13:58:35;;;;;;;76.55;72.03;;;14.90;99.90;;;;;;8132057;28;20031;-70
2021/06/30 14:02:36;;;;;;;69.20;65.22;;;15.00;99.90;;;;;;8164524;28;20024;-70
2021/06/30 14:06:36;;;;;;;2.60;0.90;;;15.30;99.90;;;;;;8148956;28;20039;-70
2021/06/30 14:10:39;;;;;;;82.72;77.95;;;16.10;99.90;;;;;;8141321;28;20089;-69
2021/06/30 14:14:39;;;;;;;533.53;398.38;;;18.10;99.90;;;;;;8145053;28;20047;-69
2021/06/30 14:18:40;;;;;;;600.42;478.63;;;21.40;99.90;;;;;;8150209;28;20038;-68
2021/06/30 14:22:44;;;;;;;602.95;518.70;;;24.50;99.90;;;;;;8144006;28;20039;-67
2021/06/30 14:26:45;;;;;;;625.22;557.72;;;25.10;99.90;;;;;;8153378;29;20027;-68
2021/06/30 14:30:51;;;;;;;685.08;616.08;;;25.60;99.90;;;;;;8146059;28;20036;-66
2021/06/30 14:34:53;;;;;;;706.50;636.90;;;27.30;99.30;;;;;;8154462;28;20406;-68
2021/06/30 14:38:53;;;;;;;860.47;786.47;;;26.10;98.10;;;;;;8157944;28;20031;-68
2021/06/30 14:42:54;;;;;;;491.33;458.45;;;26.70;97.30;;;;;;8157845;29;20044;-67
2021/06/30 14:46:54;;;;;;;630.10;562.28;;;24.20;99.90;;;;;;8152504;28;20051;-67
2021/06/30 14:50:57;;;;;;;598.70;521.35;;;21.40;99.90;;;;;;8154297;28;20035;-68
2021/06/30 14:54:57;;;;;;;601.22;509.08;;;20.00;99.90;;;;;;8158691;29;20596;-68
2021/06/30 14:58:58;;;;;;;597.33;489.27;;;19.60;99.90;;;;;;8156264;29;20103;-68
2021/06/30 15:02:58;;;;;;;586.42;457.30;;;19.20;99.90;;;;;;8143393;29;20028;-69
2021/06/30 15:06:59;;;;;;;587.63;448.08;;;18.80;99.90;;;;;;8150805;28;20125;-68
2021/06/30 15:11:00;;;;;;;584.15;459.92;;;19.00;99.90;;;;;;8145119;28;20043;-68
2021/06/30 15:15:01;;;;;;;603.83;523.50;;;21.50;99.90;;;;;;8144014;28;20043;-66
2021/06/30 15:19:02;;;;;;;607.78;540.42;;;22.90;99.90;;;;;;8146177;28;20042;-66
2021/06/30 15:23:02;;;;;;;601.58;519.75;;;22.20;99.90;;;;;;8144834;29;20035;-66
2021/06/30 15:27:03;;;;;;;598.45;498.33;;;21.10;99.90;;;;;;8134671;28;20058;-66
2021/06/30 15:31:04;;;;;;;703.75;639.72;;;20.10;99.90;;;;;;8140638;28;20040;-66
2021/06/30 15:35:06;;;;;;;694.83;623.90;;;19.60;99.90;;;;;;8159759;28;20111;-66
2021/06/30 15:39:10;;;;;;;709.65;638.17;;;22.00;99.90;;;;;;8162459;28;20059;-68
2021/06/30 15:43:11;;;;;;;855.75;778.97;;;25.50;99.90;;;;;;8173619;28;20040;-67
2021/06/30 15:47:11;;;;;;;825.30;750.97;;;28.30;99.90;;;;;;8163426;28;20046;-67
2021/06/30 15:51:14;;;;;;;785.38;712.80;;;27.20;96.40;;;;;;8164121;28;20039;-66
2021/06/30 15:55:18;;;;;;;683.50;615.55;;;25.50;99.90;;;;;;8164120;28;20035;-66
2021/06/30 15:59:23;;;;;;;670.00;602.22;;;23.80;99.90;;;;;;8163155;28;20035;-66
2021/06/30 16:03:28;;;;;;;645.28;577.55;;;22.80;99.90;;;;;;8161674;28;20028;-66
2021/06/30 16:07:28;;;;;;;613.80;547.13;;;22.00;99.90;;;;;;8163722;28;20513;-66
2021/06/30 16:15:32;;;;;;;609.42;543.03;;;22.60;99.90;;;;;;8199929;23;20062;-74
2021/06/30 16:19:33;;;;;;;594.38;524.92;;;22.10;99.90;;;;;;8202654;28;20055;-75
2021/06/30 16:23:34;;;;;;;593.75;506.58;;;21.00;99.90;;;;;;8279305;28;20025;-73
2021/06/30 16:27:34;;;;;;;594.50;496.88;;;20.30;99.90;;;;;;8346386;28;20025;-73
2021/06/30 16:31:36;;;;;;;590.60;481.23;;;19.90;99.90;;;;;;8372252;28;20039;-73
2021/06/30 16:35:37;;;;;;;594.00;475.80;;;19.60;99.90;;;;;;8369948;28;20028;-72
2021/06/30 16:39:38;;;;;;;596.30;483.40;;;19.30;99.90;;;;;;8364034;28;20021;-72
2021/06/30 16:43:38;;;;;;;593.33;480.85;;;19.50;99.90;;;;;;8353958;28;20429;-67
2021/06/30 16:47:39;;;;;;;591.00;463.52;;;19.60;99.90;;;;;;8350724;28;20044;-67
2021/06/30 16:51:40;;;;;;;589.50;481.52;;;19.70;99.90;;;;;;8331290;28;20021;-68
2021/06/30 16:55:41;;;;;;;587.40;449.73;;;19.40;99.90;;;;;;8320950;28;20037;-67
2021/06/30 16:59:41;;;;;;;589.33;454.60;;;19.40;99.90;;;;;;8324753;28;20030;-67
2021/06/30 17:03:42;;;;;;;586.40;447.83;;;19.50;99.90;;;;;;8323919;28;20109;-68
2021/06/30 17:07:42;;;;;;;592.78;461.15;;;19.60;99.90;;;;;;8306438;28;20418;-68
2021/06/30 17:11:43;;;;;;;581.80;436.95;;;19.50;99.90;;;;;;8337255;28;20035;-67
2021/06/30 17:15:44;;;;;;;586.03;433.40;;;19.20;99.90;;;;;;8319033;28;20022;-67
2021/06/30 17:19:47;;;;;;;591.63;443.05;;;18.90;99.90;;;;;;8300972;28;20026;-68
2021/06/30 17:23:49;;;;;;;600.72;443.15;;;18.50;99.90;;;;;;8322945;28;20021;-66
2021/06/30 17:27:50;;;;;;;584.33;391.98;;;17.60;99.90;;;;;;8300699;28;20030;-68
2021/06/30 17:31:51;;;;;;;580.58;373.45;;;15.60;99.90;;;;;;8316951;28;20033;-67
2021/06/30 17:35:51;;;;;;;577.70;370.38;;;14.40;99.90;;;;;;8308367;28;20091;-66
2021/06/30 17:39:52;;;;;;;573.65;360.33;;;13.80;99.90;;;;;;8309548;28;20480;-67
2021/06/30 17:43:52;;;;;;;574.10;353.48;;;13.80;99.90;;;;;;8325639;28;20026;-67
2021/06/30 17:47:54;;;;;;;562.25;344.17;;;13.70;99.90;;;;;;8299356;28;20026;-67
2021/06/30 17:51:55;;;;;;;558.58;341.42;;;13.70;99.90;;;;;;8297676;28;20030;-67
2021/06/30 17:55:55;;;;;;;573.10;348.48;;;13.80;99.90;;;;;;8300088;28;20108;-67
2021/06/30 17:59:56;;;;;;;535.67;345.70;;;13.90;99.90;;;;;;8293773;28;20508;-67
2021/06/30 18:03:56;;;;;;;418.67;351.10;;;14.00;99.90;;;;;;8302244;28;20399;-67
2021/06/30 18:08:01;;;;;;;528.60;355.10;;;14.00;99.90;;;;;;8307280;28;20021;-67
2021/06/30 18:12:02;;;;;;;566.92;344.23;;;14.10;99.90;;;;;;8298042;28;20146;-67
2021/06/30 18:16:03;;;;;;;569.92;345.40;;;14.20;99.90;;;;;;8300109;28;20487;-66
2021/06/30 18:20:06;;;;;;;565.35;345.35;;;14.10;99.90;;;;;;8343816;28;20031;-66
2021/06/30 18:24:06;;;;;;;557.72;349.65;;;14.20;99.90;;;;;;8336093;28;20044;-66
2021/06/30 18:28:08;;;;;;;556.60;350.42;;;14.10;99.90;;;;;;8333511;28;20025;-66
2021/06/30 18:32:10;;;;;;;549.50;339.85;;;14.10;99.90;;;;;;8343591;28;20112;-65
2021/06/30 18:36:10;;;;;;;552.83;344.65;;;14.20;99.90;;;;;;8345730;28;20468;-66
2021/06/30 18:40:14;;;;;;;546.67;349.52;;;14.30;99.90;;;;;;8331028;28;20033;-73
2021/06/30 18:44:14;;;;;;;546.28;339.85;;;14.20;99.90;;;;;;8302067;28;20593;-74
2021/06/30 18:48:15;;;;;;;537.55;333.65;;;14.20;99.90;;;;;;8327649;28;20159;-74
2021/06/30 18:52:15;;;;;;;536.80;338.00;;;14.10;99.90;;;;;;8330647;28;20022;-75
2021/06/30 18:56:16;;;;;;;541.10;335.50;;;14.20;99.90;;;;;;8329071;28;20087;-74
2021/06/30 19:00:20;;;;;;;568.35;338.48;;;14.10;99.90;;;;;;8336149;28;20021;-75
2021/06/30 19:04:22;;;;;;;543.53;338.48;;;14.10;99.90;;;;;;8350790;28;20029;-75
2021/06/30 19:08:25;;;;;;;551.13;336.95;;;14.10;99.90;;;;;;8336272;28;20119;-75
2021/06/30 19:12:25;;;;;;;546.20;335.17;;;14.10;99.90;;;;;;8328527;28;20125;-74
2021/06/30 19:16:26;;;;;;;552.65;338.65;;;14.10;99.90;;;;;;8340132;28;20046;-66
2021/06/30 19:20:29;;;;;;;552.25;335.40;;;14.10;99.90;;;;;;8339250;28;20155;-67
2021/06/30 19:24:30;;;;;;;545.50;331.50;;;14.10;99.90;;;;;;8343827;28;20021;-66
2021/06/30 19:28:30;;;;;;;547.63;328.35;;;14.20;99.90;;;;;;8334266;28;20033;-67
2021/06/30 19:32:31;;;;;;;547.20;330.40;;;14.10;99.90;;;;;;8356478;28;20025;-67
2021/06/30 19:36:32;;;;;;;553.13;334.35;;;14.20;99.90;;;;;;8333650;28;20756;-66
2021/06/30 19:40:33;;;;;;;549.92;333.55;;;14.00;99.90;;;;;;8344839;28;20103;-66
2021/06/30 19:44:35;;;;;;;551.08;336.90;;;14.20;99.90;;;;;;8341995;28;20033;-67
2021/06/30 19:48:36;;;;;;;543.60;327.48;;;14.20;99.90;;;;;;8327188;28;20033;-66
2021/06/30 19:56:39;;;;;;;549.50;340.08;;;14.20;99.90;;;;;;8346146;28;20033;-66
2021/06/30 20:00:39;;;;;;;550.15;333.23;;;14.10;99.90;;;;;;8345910;28;20529;-66
2021/06/30 20:04:40;;;;;;;549.83;337.33;;;14.10;99.90;;;;;;8341508;28;20025;-66
2021/06/30 20:08:40;;;;;;;548.33;338.45;;;14.00;99.90;;;;;;8344423;28;20067;-66
2021/06/30 20:12:41;;;;;;;554.90;347.42;;;14.10;99.90;;;;;;8339105;28;20462;-66
2021/06/30 20:16:42;;;;;;;547.67;338.08;;;14.00;99.90;;;;;;8342667;28;20028;-66
2021/06/30 20:20:43;;;;;;;547.08;340.80;;;14.00;99.90;;;;;;8342183;28;20026;-66
2021/06/30 20:24:43;;;;;;;545.15;340.42;;;14.00;99.90;;;;;;8345435;28;20407;-65
2021/06/30 20:28:44;;;;;;;546.08;348.60;;;13.90;99.90;;;;;;8344090;28;20037;-66
2021/06/30 20:32:45;;;;;;;545.92;341.63;;;13.70;99.90;;;;;;8343077;28;20900;-66
2021/06/30 20:36:45;;;;;;;546.97;337.52;;;13.60;99.90;;;;;;8342072;28;20503;-66
2021/06/30 20:40:46;;;;;;;543.25;336.52;;;13.40;99.90;;;;;;8342044;28;20006;-66
2021/06/30 20:44:47;;;;;;;538.38;331.65;;;13.20;99.90;;;;;;8345867;28;20044;-67
2021/06/30 20:48:47;;;;;;;538.72;332.95;;;13.20;99.90;;;;;;8314977;28;20033;-66